createdAt,value
2022-12-19T00:00:38.935Z,21.23
2022-12-19T00:03:45.574Z,22.80
2022-12-19T00:06:48.123Z,23.10
2022-12-19T00:09:50.863Z,22.60
2022-12-19T00:12:53.281Z,21.77
2022-12-19T00:15:55.938Z,22.48
2022-12-19T00:19:00.971Z,22.92
2022-12-19T00:22:07.069Z,22.15
2022-12-19T00:25:12.255Z,22.97
2022-12-19T00:28:15.354Z,21.63
2022-12-19T00:31:22.449Z,22.50
2022-12-19T00:34:25.001Z,21.73
2022-12-19T00:37:27.633Z,23.20
2022-12-19T00:40:32.242Z,22.30
2022-12-19T00:43:35.561Z,23.23
2022-12-19T00:46:38.936Z,22.95
2022-12-19T00:49:41.465Z,22.40
2022-12-19T00:52:44.978Z,20.55
2022-12-19T00:55:47.499Z,22.93
2022-12-19T00:58:50.540Z,23.58
2022-12-19T01:01:53.160Z,21.75
2022-12-19T01:04:55.750Z,23.87
2022-12-19T01:07:58.177Z,23.98
2022-12-19T01:11:00.823Z,22.90
2022-12-19T01:14:03.189Z,22.05
2022-12-19T01:17:05.805Z,23.85
2022-12-19T01:20:09.114Z,22.67
2022-12-19T01:23:11.914Z,22.92
2022-12-19T01:26:14.371Z,23.80
2022-12-19T01:29:17.046Z,24.60
2022-12-19T01:32:20.411Z,24.40
2022-12-19T01:35:23.730Z,25.97
2022-12-19T01:38:26.779Z,24.08
2022-12-19T01:41:29.302Z,24.35
2022-12-19T01:44:31.791Z,23.80
2022-12-19T01:47:45.221Z,25.08
2022-12-19T01:51:01.360Z,24.85
2022-12-19T01:54:10.020Z,24.27
2022-12-19T01:57:15.719Z,24.70
2022-12-19T02:00:18.957Z,26.02
2022-12-19T02:03:33.524Z,23.20
2022-12-19T02:06:37.637Z,26.33
2022-12-19T02:09:40.505Z,24.65
2022-12-19T02:12:45.666Z,25.05
2022-12-19T02:15:49.198Z,23.08
2022-12-19T02:19:13.770Z,23.03
2022-12-19T02:22:25.050Z,24.83
2022-12-19T02:25:44.178Z,25.02
2022-12-19T02:29:15.440Z,27.30
2022-12-19T02:32:47.065Z,24.05
2022-12-19T02:36:03.823Z,25.00
2022-12-19T02:39:17.550Z,23.42
2022-12-19T02:42:27.725Z,25.23
2022-12-19T02:45:37.145Z,26.85
2022-12-19T02:48:41.516Z,24.30
2022-12-19T02:51:44.495Z,25.27
2022-12-19T02:54:53.987Z,21.35
2022-12-19T02:58:31.607Z,25.23
2022-12-19T03:01:47.846Z,24.13
2022-12-19T03:05:05.376Z,24.13
2022-12-19T03:08:33.969Z,23.85
2022-12-19T03:11:40.890Z,24.60
2022-12-19T03:14:44.623Z,23.73
2022-12-19T03:17:48.752Z,22.60
2022-12-19T03:21:04.787Z,23.52
2022-12-19T03:24:10.069Z,23.17
2022-12-19T03:27:24.704Z,24.30
2022-12-19T03:30:29.682Z,24.85
2022-12-19T03:33:34.899Z,25.23
2022-12-19T03:36:42.825Z,23.80
2022-12-19T03:39:49.087Z,22.73
2022-12-19T03:43:10.402Z,24.58
2022-12-19T03:46:26.634Z,23.85
2022-12-19T03:49:29.539Z,23.93
2022-12-19T03:52:51.317Z,24.25
2022-12-19T03:56:05.117Z,25.10
2022-12-19T03:59:13.373Z,23.50
2022-12-19T04:02:18.291Z,23.63
2022-12-19T04:05:24.673Z,25.73
2022-12-19T04:08:29.074Z,24.15
2022-12-19T04:11:38.799Z,23.65
2022-12-19T04:14:41.961Z,24.08
2022-12-19T04:17:51.755Z,23.95
2022-12-19T04:21:28.011Z,24.57
2022-12-19T04:24:34.989Z,23.58
2022-12-19T04:27:40.741Z,24.80
2022-12-19T04:30:45.180Z,25.15
2022-12-19T04:33:47.665Z,24.27
2022-12-19T04:36:51.320Z,25.58
2022-12-19T04:39:53.937Z,22.98
2022-12-19T04:42:56.600Z,22.55
2022-12-19T04:45:59.138Z,23.08
2022-12-19T04:49:01.948Z,24.42
2022-12-19T04:52:04.728Z,24.35
2022-12-19T04:55:07.917Z,24.67
2022-12-19T04:58:10.393Z,22.38
2022-12-19T05:01:14.380Z,28.63
2022-12-19T05:04:17.198Z,36.55
2022-12-19T05:07:19.688Z,23.80
2022-12-19T05:10:22.206Z,24.50
2022-12-19T05:13:24.688Z,23.08
2022-12-19T05:16:27.238Z,23.75
2022-12-19T05:19:30.548Z,23.83
2022-12-19T05:22:33.455Z,25.95
2022-12-19T05:25:35.974Z,24.90
2022-12-19T05:28:39.010Z,24.27
2022-12-19T05:31:41.922Z,25.20
2022-12-19T05:34:44.435Z,24.48
2022-12-19T05:37:46.882Z,26.65
2022-12-19T05:40:50.048Z,25.23
2022-12-19T05:43:55.054Z,24.30
2022-12-19T05:46:57.719Z,24.83
2022-12-19T05:50:00.322Z,24.73
2022-12-19T05:53:02.764Z,24.00
2022-12-19T05:56:17.514Z,28.77
2022-12-19T05:59:20.221Z,25.63
2022-12-19T06:02:23.166Z,26.30
2022-12-19T06:05:25.826Z,26.33
2022-12-19T06:08:28.311Z,25.75
2022-12-19T06:11:31.075Z,24.05
2022-12-19T06:14:33.661Z,24.90
2022-12-19T06:17:36.076Z,23.58
2022-12-19T06:20:39.229Z,24.27
2022-12-19T06:23:43.660Z,25.15
2022-12-19T06:26:46.166Z,24.83
2022-12-19T06:29:48.718Z,23.85
2022-12-19T06:32:51.453Z,24.13
2022-12-19T06:36:00.009Z,22.60
2022-12-19T06:39:02.765Z,20.77
2022-12-19T06:42:23.765Z,20.77
2022-12-19T06:45:26.292Z,20.60
2022-12-19T06:48:29.356Z,19.73
2022-12-19T06:51:33.191Z,19.45
2022-12-19T06:54:35.678Z,19.17
2022-12-19T06:57:45.352Z,20.35
2022-12-19T07:00:48.638Z,18.30
2022-12-19T07:03:51.922Z,19.77
2022-12-19T07:06:54.761Z,18.75
2022-12-19T07:09:57.565Z,18.13
2022-12-19T07:13:00.522Z,17.05
2022-12-19T07:16:05.328Z,17.00
2022-12-19T07:19:09.346Z,16.95
2022-12-19T07:22:14.071Z,17.30
2022-12-19T07:25:17.853Z,16.95
2022-12-19T07:28:20.392Z,16.80
2022-12-19T07:31:22.859Z,16.23
2022-12-19T07:34:26.286Z,15.25
2022-12-19T07:37:28.835Z,14.38
2022-12-19T07:40:33.785Z,15.38
2022-12-19T07:43:36.338Z,14.53
2022-12-19T07:46:39.911Z,14.25
2022-12-19T07:49:42.429Z,14.48
2022-12-19T07:52:45.414Z,14.40
2022-12-19T07:55:51.700Z,14.07
2022-12-19T07:58:54.373Z,12.95
2022-12-19T08:01:57.153Z,14.27
2022-12-19T08:05:03.043Z,13.77
2022-12-19T08:08:05.672Z,13.63
2022-12-19T08:11:22.379Z,14.25
2022-12-19T08:14:25.068Z,13.45
2022-12-19T08:17:27.565Z,14.13
2022-12-19T08:20:30.429Z,13.45
2022-12-19T08:23:33.125Z,14.23
2022-12-19T08:26:40.469Z,12.70
2022-12-19T08:29:45.773Z,12.15
2022-12-19T08:32:48.396Z,11.90
2022-12-19T08:35:51.499Z,10.90
2022-12-19T08:38:54.290Z,12.40
2022-12-19T08:41:56.811Z,10.85
2022-12-19T08:44:59.284Z,11.52
2022-12-19T08:48:01.783Z,11.60
2022-12-19T08:51:07.460Z,12.33
2022-12-19T08:54:11.896Z,11.95
2022-12-19T08:57:14.710Z,12.50
2022-12-19T09:00:18.086Z,12.38
2022-12-19T09:03:22.722Z,11.60
2022-12-19T09:06:27.342Z,11.68
2022-12-19T09:09:30.267Z,12.52
2022-12-19T09:12:32.813Z,12.82
2022-12-19T09:15:35.277Z,11.43
2022-12-19T09:18:45.169Z,12.07
2022-12-19T09:21:50.605Z,12.30
2022-12-19T09:24:53.202Z,13.00
2022-12-19T09:28:26.254Z,13.23
2022-12-19T09:31:21.493Z,12.25
2022-12-19T09:34:36.809Z,11.77
2022-12-19T09:37:40.799Z,12.83
2022-12-19T09:41:26.724Z,12.40
2022-12-19T09:44:47.871Z,10.82
2022-12-19T09:47:55.475Z,12.07
2022-12-19T09:51:13.886Z,12.60
2022-12-19T09:54:37.057Z,12.23
2022-12-19T09:58:13.550Z,12.82
2022-12-19T10:01:22.410Z,13.38
2022-12-19T10:04:29.763Z,12.10
2022-12-19T10:07:53.326Z,11.63
2022-12-19T10:12:43.953Z,13.63
2022-12-19T10:15:03.120Z,12.00
2022-12-19T10:18:34.301Z,11.63
2022-12-19T10:25:12.225Z,12.03
2022-12-19T10:28:38.036Z,13.88
2022-12-19T10:32:04.522Z,13.57
2022-12-19T10:35:18.941Z,15.65
2022-12-19T10:38:28.659Z,15.02
2022-12-19T10:41:32.601Z,14.17
2022-12-19T10:44:40.125Z,15.18
2022-12-19T10:47:42.758Z,13.52
2022-12-19T10:50:45.554Z,13.60
2022-12-19T10:53:55.270Z,12.70
2022-12-19T10:57:22.998Z,13.57
2022-12-19T11:00:26.358Z,14.40
2022-12-19T11:03:29.029Z,12.27
2022-12-19T11:06:37.749Z,11.93
2022-12-19T11:09:42.614Z,12.10
2022-12-19T11:18:14.718Z,12.97
2022-12-19T11:21:15.059Z,12.95
2022-12-19T11:29:25.515Z,12.88
2022-12-19T11:30:09.514Z,13.02
2022-12-19T11:30:43.940Z,12.73
2022-12-19T11:33:33.227Z,12.70
2022-12-19T11:36:55.945Z,13.30
2022-12-19T11:40:03.596Z,14.02
2022-12-19T11:46:51.548Z,14.13
2022-12-19T11:50:02.982Z,14.40
2022-12-19T11:53:19.203Z,14.10
2022-12-19T11:56:24.780Z,13.60
2022-12-19T11:59:38.568Z,13.52
2022-12-19T12:02:43.964Z,13.53
2022-12-19T12:05:48.026Z,14.38
2022-12-19T12:12:15.344Z,14.25
2022-12-19T12:18:41.636Z,13.52
2022-12-19T12:31:01.056Z,13.47
2022-12-19T12:31:22.672Z,14.23
2022-12-19T12:31:23.268Z,13.52
2022-12-19T12:32:03.187Z,12.75
2022-12-19T12:37:03.453Z,12.70
2022-12-19T12:39:02.521Z,13.05
2022-12-19T12:42:26.998Z,13.52
2022-12-19T12:45:41.382Z,12.93
2022-12-19T12:48:52.093Z,12.50
2022-12-19T12:51:55.361Z,13.07
2022-12-19T12:54:58.551Z,12.77
2022-12-19T12:58:01.236Z,13.27
2022-12-19T13:01:11.698Z,12.73
2022-12-19T13:04:15.775Z,12.77
2022-12-19T13:07:50.993Z,13.00
2022-12-19T13:10:56.541Z,11.60
2022-12-19T13:13:59.330Z,13.02
2022-12-19T13:17:21.787Z,13.37
2022-12-19T13:20:24.868Z,12.63
2022-12-19T13:23:30.695Z,13.00
2022-12-19T13:26:50.123Z,12.63
2022-12-19T13:30:03.664Z,12.20
2022-12-19T13:33:08.836Z,12.82
2022-12-19T13:39:54.780Z,13.82
2022-12-19T13:40:20.996Z,13.13
2022-12-19T13:43:49.933Z,13.63
2022-12-19T13:46:56.433Z,12.98
2022-12-19T13:50:04.309Z,13.80
2022-12-19T13:53:21.947Z,13.15
2022-12-19T13:56:24.416Z,14.63
2022-12-19T13:59:33.800Z,14.27
2022-12-19T14:02:45.250Z,12.95
2022-12-19T14:06:17.453Z,13.88
2022-12-19T14:11:26.089Z,14.13
2022-12-19T14:13:57.326Z,13.48
2022-12-19T14:16:43.967Z,12.52
2022-12-19T14:19:50.158Z,13.30
2022-12-19T14:23:00.296Z,13.80
2022-12-19T14:28:26.135Z,13.98
2022-12-19T14:30:29.329Z,12.85
2022-12-19T14:33:44.255Z,13.40
2022-12-19T14:36:31.470Z,14.13
2022-12-19T14:39:36.332Z,13.63
2022-12-19T14:43:59.309Z,14.27
2022-12-19T14:51:42.914Z,13.60
2022-12-19T14:54:13.006Z,12.57
2022-12-19T14:54:46.758Z,13.23
2022-12-19T14:57:01.047Z,13.63
2022-12-19T15:01:07.552Z,13.88
2022-12-19T15:04:52.466Z,13.52
2022-12-19T15:07:17.752Z,13.68
2022-12-19T15:11:03.853Z,13.83
2022-12-19T15:14:54.203Z,14.45
2022-12-19T15:17:23.883Z,12.73
2022-12-19T15:20:26.571Z,13.70
2022-12-19T15:23:29.874Z,14.15
2022-12-19T15:26:46.095Z,14.02
2022-12-19T15:29:49.564Z,13.45
2022-12-19T15:32:52.134Z,13.90
2022-12-19T15:35:55.934Z,12.65
2022-12-19T15:38:58.376Z,14.30
2022-12-19T15:42:01.955Z,15.00
2022-12-19T15:45:05.035Z,14.60
2022-12-19T15:48:18.129Z,14.07
2022-12-19T15:51:20.530Z,14.40
2022-12-19T15:57:51.235Z,14.10
2022-12-19T16:01:00.444Z,14.65
2022-12-19T16:04:03.609Z,14.82
2022-12-19T16:07:14.823Z,14.05
2022-12-19T16:10:17.830Z,14.35
2022-12-19T16:13:24.379Z,14.57
2022-12-19T16:16:27.158Z,13.90
2022-12-19T16:19:31.263Z,14.90
2022-12-19T16:22:33.840Z,14.98
2022-12-19T16:25:40.993Z,14.02
2022-12-19T16:28:43.626Z,16.37
2022-12-19T16:31:46.494Z,15.20
2022-12-19T16:34:48.981Z,15.20
2022-12-19T16:37:51.501Z,16.87
2022-12-19T16:40:54.051Z,16.33
2022-12-19T16:43:56.543Z,15.88
2022-12-19T16:46:59.270Z,15.93
2022-12-19T16:50:07.627Z,17.17
2022-12-19T16:53:10.160Z,15.80
2022-12-19T16:56:29.880Z,16.23
2022-12-19T16:59:41.638Z,16.58
2022-12-19T17:02:58.724Z,15.68
2022-12-19T17:06:01.528Z,16.45
2022-12-19T17:09:04.044Z,15.43
2022-12-19T17:12:06.822Z,15.47
2022-12-19T17:15:31.584Z,13.93
2022-12-19T17:18:37.209Z,14.48
2022-12-19T17:21:39.608Z,14.90
2022-12-19T17:24:43.558Z,15.30
2022-12-19T17:27:46.822Z,14.98
2022-12-19T17:30:52.495Z,14.52
2022-12-19T17:33:57.800Z,14.30
2022-12-19T17:37:03.246Z,13.02
2022-12-19T17:40:16.720Z,13.60
2022-12-19T17:43:19.142Z,15.30
2022-12-19T17:46:25.397Z,14.43
2022-12-19T17:49:31.069Z,14.82
2022-12-19T17:52:36.241Z,15.13
2022-12-19T17:55:38.631Z,13.65
2022-12-19T17:58:41.154Z,13.85
2022-12-19T18:01:47.435Z,14.00
2022-12-19T18:04:51.223Z,14.82
2022-12-19T18:07:54.533Z,14.67
2022-12-19T18:11:03.927Z,13.98
2022-12-19T18:14:06.349Z,15.13
2022-12-19T18:17:12.706Z,14.55
2022-12-19T18:20:19.284Z,14.82
2022-12-19T18:23:23.652Z,14.52
2022-12-19T18:26:26.566Z,14.48
2022-12-19T18:29:29.091Z,14.67
2022-12-19T18:32:34.165Z,13.70
2022-12-19T18:35:40.676Z,13.50
2022-12-19T18:38:43.321Z,14.35
2022-12-19T18:41:48.210Z,15.07
2022-12-19T18:44:50.688Z,16.02
2022-12-19T18:47:57.530Z,15.10
2022-12-19T18:51:02.168Z,15.27
2022-12-19T18:54:12.817Z,15.93
2022-12-19T18:57:15.499Z,15.98
2022-12-19T19:00:20.549Z,15.83
2022-12-19T19:03:29.171Z,15.75
2022-12-19T19:06:37.609Z,15.73
2022-12-19T19:09:41.471Z,16.15
2022-12-19T19:13:09.849Z,15.20
2022-12-19T19:16:19.016Z,15.50
2022-12-19T19:19:22.957Z,15.52
2022-12-19T19:22:25.882Z,14.70
2022-12-19T19:25:28.598Z,15.18
2022-12-19T19:28:31.346Z,15.60
2022-12-19T19:31:38.670Z,14.85
2022-12-19T19:34:41.666Z,15.90
2022-12-19T19:37:45.265Z,15.75
2022-12-19T19:40:49.235Z,15.98
2022-12-19T19:43:51.821Z,15.63
2022-12-19T19:46:54.357Z,16.37
2022-12-19T19:49:57.244Z,16.50
2022-12-19T19:53:00.227Z,16.35
2022-12-19T19:56:04.002Z,16.50
2022-12-19T19:59:06.643Z,16.92
2022-12-19T20:02:11.169Z,16.70
2022-12-19T20:05:13.961Z,16.23
2022-12-19T20:08:16.680Z,17.40
2022-12-19T20:11:20.526Z,17.15
2022-12-19T20:14:23.770Z,16.50
2022-12-19T20:17:26.673Z,16.75
2022-12-19T20:20:29.440Z,15.85
2022-12-19T20:23:32.084Z,15.93
2022-12-19T20:26:35.324Z,16.48
2022-12-19T20:29:37.955Z,16.07
2022-12-19T20:32:40.571Z,16.30
2022-12-19T20:35:43.660Z,15.90
2022-12-19T20:38:47.195Z,16.57
2022-12-19T20:41:51.512Z,16.83
2022-12-19T20:44:54.247Z,16.13
2022-12-19T20:47:57.559Z,17.63
2022-12-19T20:51:01.561Z,17.27
2022-12-19T20:54:05.202Z,17.25
2022-12-19T20:57:07.786Z,15.75
2022-12-19T21:00:11.529Z,16.83
2022-12-19T21:03:27.785Z,16.52
2022-12-19T21:06:31.433Z,17.67
2022-12-19T21:09:33.952Z,17.15
2022-12-19T21:12:38.000Z,17.13
2022-12-19T21:15:42.547Z,17.70
2022-12-19T21:18:47.370Z,16.88
2022-12-19T21:21:50.188Z,17.13
2022-12-19T21:24:52.604Z,18.00
2022-12-19T21:27:55.027Z,18.23
2022-12-19T21:31:06.864Z,17.45
2022-12-19T21:34:10.118Z,17.02
2022-12-19T21:37:12.502Z,18.58
2022-12-19T21:40:16.083Z,18.00
2022-12-19T21:43:18.715Z,18.17
2022-12-19T21:46:23.965Z,18.13
2022-12-19T21:49:26.613Z,18.52
2022-12-19T21:52:29.090Z,18.33
2022-12-19T21:55:31.528Z,18.05
2022-12-19T21:58:34.462Z,19.48
2022-12-19T22:01:37.032Z,18.17
2022-12-19T22:04:39.522Z,16.52
2022-12-19T22:07:41.968Z,17.48
2022-12-19T22:10:44.506Z,17.02
2022-12-19T22:13:48.702Z,19.73
2022-12-19T22:16:51.593Z,18.95
2022-12-19T22:19:55.378Z,17.48
2022-12-19T22:22:58.018Z,18.55
2022-12-19T22:26:07.261Z,17.08
2022-12-19T22:29:13.814Z,18.67
2022-12-19T22:32:17.928Z,18.58
2022-12-19T22:35:20.518Z,18.70
2022-12-19T22:38:23.007Z,19.65
2022-12-19T22:41:26.106Z,18.73
2022-12-19T22:44:28.583Z,18.05
2022-12-19T22:47:31.049Z,18.67
2022-12-19T22:50:33.719Z,19.40
2022-12-19T22:53:37.745Z,18.90
2022-12-19T22:56:40.458Z,17.90
2022-12-19T22:59:43.072Z,18.13
2022-12-19T23:02:45.649Z,18.88
2022-12-19T23:05:51.843Z,19.77
2022-12-19T23:08:54.944Z,19.33
2022-12-19T23:11:57.394Z,18.92
2022-12-19T23:14:59.864Z,18.83
2022-12-19T23:18:02.566Z,20.23
2022-12-19T23:21:07.675Z,19.77
2022-12-19T23:24:12.329Z,18.98
2022-12-19T23:27:14.959Z,18.57
2022-12-19T23:30:18.566Z,18.33
2022-12-19T23:33:21.311Z,18.60
2022-12-19T23:37:00.427Z,19.08
2022-12-19T23:39:47.055Z,17.10
2022-12-19T23:42:50.010Z,17.83
2022-12-19T23:45:52.898Z,19.63
2022-12-19T23:48:55.803Z,18.83
2022-12-19T23:52:00.009Z,18.15
2022-12-19T23:55:02.434Z,18.52
2022-12-19T23:58:09.621Z,19.27
